Udo Maru — JM6522 — position and weather

sailwx.info

Track history (hours):
 
Tides and Currents Weather Stations Pressure Air Temp Water Temp Dewpoint Dewpoint Depression Visibility Wind Speed Wind Dir Waves Ship Positions

Udo Maru

Last reported at 2014-Sep-14 21:33 UTC. Time now 2014-Sep-19 01:53 UTC.
Position N 34°02' E 134°59'.

Length 87 m; draft 4.9 m.

Type: Ship (hazmat cat A). MMSI: 431600499.

Date/timePositionNaut miles runAvg speedWind from/ knotsBaromVisibWave heightAir tempDewpointWater temp
2014-Sep-14 21:33N 34°02' E 134°59'1212.5
2014-Sep-14 20:33N 34°14' E 134°58'1312.5
2014-Sep-14 19:33N 34°27' E 135°01'1010.1
2014-Sep-14 18:32N 34°37' E 134°60'  
2014-Sep-10 00:32N 34°38' E 134°59'1111.1
2014-Sep-09 23:33N 34°27' E 135°03'1413.8
2014-Sep-09 22:34N 34°14' E 134°60'1313.4
2014-Sep-09 21:34N 34°00' E 135°00'  
2014-Sep-04 21:33N 34°56' E 139°28'  
Track history (hours):
 
Tides and Currents Weather Stations Pressure Air Temp Water Temp Dewpoint Dewpoint Depression Visibility Wind Speed Wind Dir Waves Ship Positions

Udo Maru

Last reported at 2014-Sep-14 21:33 UTC. Time now 2014-Sep-19 01:53 UTC.
Position N 34°02' E 134°59'.

Length 87 m; draft 4.9 m.

Type: Ship (hazmat cat A). MMSI: 431600499.

Date/timePositionNaut miles runAvg speedWind from/ knotsBaromVisibWave heightAir tempDewpointWater temp
2014-Sep-14 21:33N 34°02' E 134°59'1212.5
2014-Sep-14 20:33N 34°14' E 134°58'1312.5
2014-Sep-14 19:33N 34°27' E 135°01'1010.1
2014-Sep-14 18:32N 34°37' E 134°60'  
2014-Sep-10 00:32N 34°38' E 134°59'1111.1
2014-Sep-09 23:33N 34°27' E 135°03'1413.8
2014-Sep-09 22:34N 34°14' E 134°60'1313.4
2014-Sep-09 21:34N 34°00' E 135°00'  
2014-Sep-04 21:33N 34°56' E 139°28'  

Dump ship's entire track history